sensor_id;sensor_type;location;lat;lon;timestamp;pressure;altitude;pressure_sealevel;temperature;humidity
21276;BME280;36472;52.170;20.884;2022-08-20T00:01:19;100178.47;;;23.75;73.53
21276;BME280;36472;52.170;20.884;2022-08-20T00:03:48;100179.78;;;23.64;74.73
21276;BME280;36472;52.170;20.884;2022-08-20T00:06:24;100195.13;;;24.13;72.21
21276;BME280;36472;52.170;20.884;2022-08-20T00:08:53;100179.81;;;24.07;72.16
21276;BME280;36472;52.170;20.884;2022-08-20T00:11:25;100188.34;;;23.74;74.24
21276;BME280;36472;52.170;20.884;2022-08-20T00:13:58;100200.13;;;24.73;69.99
21276;BME280;36472;52.170;20.884;2022-08-20T00:16:33;100198.16;;;24.95;67.91
21276;BME280;36472;52.170;20.884;2022-08-20T00:19:06;100192.41;;;23.85;73.26
21276;BME280;36472;52.170;20.884;2022-08-20T00:21:37;100194.91;;;23.86;73.89
21276;BME280;36472;52.170;20.884;2022-08-20T00:24:06;100184.47;;;23.77;73.64
21276;BME280;36472;52.170;20.884;2022-08-20T00:26:34;100181.31;;;23.51;75.12
21276;BME280;36472;52.170;20.884;2022-08-20T00:29:19;100187.25;;;24.68;71.48
21276;BME280;36472;52.170;20.884;2022-08-20T00:31:49;100181.66;;;24.56;69.95
21276;BME280;36472;52.170;20.884;2022-08-20T00:34:18;100187.31;;;23.75;73.54
21276;BME280;36472;52.170;20.884;2022-08-20T00:36:48;100181.13;;;23.53;75.81
21276;BME280;36472;52.170;20.884;2022-08-20T00:39:16;100179.41;;;23.45;76.02
21276;BME280;36472;52.170;20.884;2022-08-20T00:41:45;100177.84;;;23.36;77.20
21276;BME280;36472;52.170;20.884;2022-08-20T00:44:18;100179.63;;;23.29;76.97
21276;BME280;36472;52.170;20.884;2022-08-20T00:46:50;100163.66;;;23.21;77.90
21276;BME280;36472;52.170;20.884;2022-08-20T00:49:24;100154.16;;;23.18;78.13
21276;BME280;36472;52.170;20.884;2022-08-20T00:51:59;100152.41;;;23.10;76.06
21276;BME280;36472;52.170;20.884;2022-08-20T00:54:37;100148.78;;;23.18;76.40
21276;BME280;36472;52.170;20.884;2022-08-20T00:57:10;100144.25;;;23.19;75.30
21276;BME280;36472;52.170;20.884;2022-08-20T00:59:41;100153.75;;;23.21;75.60
21276;BME280;36472;52.170;20.884;2022-08-20T01:02:18;100154.22;;;23.25;75.59
21276;BME280;36472;52.170;20.884;2022-08-20T01:04:49;100137.47;;;23.23;74.10
21276;BME280;36472;52.170;20.884;2022-08-20T01:07:20;100139.16;;;23.24;74.46
21276;BME280;36472;52.170;20.884;2022-08-20T01:10:00;100133.16;;;23.22;75.14
21276;BME280;36472;52.170;20.884;2022-08-20T01:12:30;100132.25;;;23.14;74.87
21276;BME280;36472;52.170;20.884;2022-08-20T01:15:02;100128.53;;;23.15;75.28
21276;BME280;36472;52.170;20.884;2022-08-20T01:17:35;100125.03;;;23.15;75.07
21276;BME280;36472;52.170;20.884;2022-08-20T01:20:12;100121.53;;;23.14;75.20
21276;BME280;36472;52.170;20.884;2022-08-20T01:22:49;100119.22;;;23.11;74.56
21276;BME280;36472;52.170;20.884;2022-08-20T01:25:44;100114.88;;;23.10;75.18
21276;BME280;36472;52.170;20.884;2022-08-20T01:28:21;100112.00;;;23.12;74.98
21276;BME280;36472;52.170;20.884;2022-08-20T01:30:52;100105.19;;;23.09;75.68
21276;BME280;36472;52.170;20.884;2022-08-20T01:33:22;100102.88;;;23.06;75.75
21276;BME280;36472;52.170;20.884;2022-08-20T01:35:53;100100.53;;;23.03;75.53
21276;BME280;36472;52.170;20.884;2022-08-20T01:38:22;100092.25;;;22.98;76.90
21276;BME280;36472;52.170;20.884;2022-08-20T01:41:06;100097.78;;;22.96;76.87
21276;BME280;36472;52.170;20.884;2022-08-20T01:43:38;100089.84;;;22.88;77.10
21276;BME280;36472;52.170;20.884;2022-08-20T01:46:08;100086.34;;;22.88;77.11
21276;BME280;36472;52.170;20.884;2022-08-20T01:48:39;100080.34;;;22.86;76.45
21276;BME280;36472;52.170;20.884;2022-08-20T01:51:19;100077.78;;;22.77;77.17
21276;BME280;36472;52.170;20.884;2022-08-20T01:53:52;100071.59;;;22.77;77.46
21276;BME280;36472;52.170;20.884;2022-08-20T01:56:27;100072.78;;;22.74;77.75
21276;BME280;36472;52.170;20.884;2022-08-20T01:59:00;100070.66;;;22.70;77.70
21276;BME280;36472;52.170;20.884;2022-08-20T02:01:34;100061.81;;;22.69;79.09
21276;BME280;36472;52.170;20.884;2022-08-20T02:04:14;100061.72;;;22.63;78.71
21276;BME280;36472;52.170;20.884;2022-08-20T02:06:49;100061.91;;;22.61;77.90
21276;BME280;36472;52.170;20.884;2022-08-20T02:09:25;100064.59;;;22.61;78.04
21276;BME280;36472;52.170;20.884;2022-08-20T02:11:57;100066.63;;;22.59;78.22
21276;BME280;36472;52.170;20.884;2022-08-20T02:14:26;100066.00;;;22.57;78.09
21276;BME280;36472;52.170;20.884;2022-08-20T02:16:55;100073.38;;;22.55;78.95
21276;BME280;36472;52.170;20.884;2022-08-20T02:19:32;100069.59;;;22.49;78.79
21276;BME280;36472;52.170;20.884;2022-08-20T02:22:11;100103.75;;;22.47;79.54
21276;BME280;36472;52.170;20.884;2022-08-20T02:24:42;100102.28;;;22.45;78.87
21276;BME280;36472;52.170;20.884;2022-08-20T02:27:13;100095.72;;;22.47;80.18
21276;BME280;36472;52.170;20.884;2022-08-20T02:29:41;100095.44;;;22.42;79.29
21276;BME280;36472;52.170;20.884;2022-08-20T02:32:10;100115.41;;;22.39;80.54
21276;BME280;36472;52.170;20.884;2022-08-20T02:34:59;100115.19;;;22.56;79.83
21276;BME280;36472;52.170;20.884;2022-08-20T02:37:30;100116.22;;;22.40;81.21
21276;BME280;36472;52.170;20.884;2022-08-20T02:39:59;100103.94;;;22.31;81.52
21276;BME280;36472;52.170;20.884;2022-08-20T02:42:29;100101.50;;;22.21;81.39
21276;BME280;36472;52.170;20.884;2022-08-20T02:44:58;100112.75;;;22.16;81.80
21276;BME280;36472;52.170;20.884;2022-08-20T02:47:27;100095.25;;;22.14;82.56
21276;BME280;36472;52.170;20.884;2022-08-20T02:49:55;100097.41;;;22.10;82.88
21276;BME280;36472;52.170;20.884;2022-08-20T02:52:25;100084.25;;;22.09;83.31
21276;BME280;36472;52.170;20.884;2022-08-20T02:54:54;100073.34;;;22.10;83.00
21276;BME280;36472;52.170;20.884;2022-08-20T02:57:23;100080.72;;;22.08;83.15
21276;BME280;36472;52.170;20.884;2022-08-20T02:59:53;100080.09;;;22.06;83.15
21276;BME280;36472;52.170;20.884;2022-08-20T03:02:22;100080.09;;;22.06;83.13
21276;BME280;36472;52.170;20.884;2022-08-20T03:04:51;100069.03;;;22.09;82.53
21276;BME280;36472;52.170;20.884;2022-08-20T03:07:20;100075.38;;;22.08;82.61
21276;BME280;36472;52.170;20.884;2022-08-20T03:09:48;100063.66;;;22.09;83.08
21276;BME280;36472;52.170;20.884;2022-08-20T03:12:17;100072.69;;;22.08;83.59
21276;BME280;36472;52.170;20.884;2022-08-20T03:14:46;100070.19;;;22.07;83.80
21276;BME280;36472;52.170;20.884;2022-08-20T03:17:16;100061.34;;;22.06;83.86
21276;BME280;36472;52.170;20.884;2022-08-20T03:19:45;100057.84;;;22.06;84.64
21276;BME280;36472;52.170;20.884;2022-08-20T03:22:13;100058.56;;;21.99;84.57
21276;BME280;36472;52.170;20.884;2022-08-20T03:24:43;100058.41;;;22.01;84.31
21276;BME280;36472;52.170;20.884;2022-08-20T03:27:12;100058.94;;;21.96;84.64
21276;BME280;36472;52.170;20.884;2022-08-20T03:29:40;100052.03;;;22.02;84.62
21276;BME280;36472;52.170;20.884;2022-08-20T03:32:09;100046.31;;;22.05;83.94
21276;BME280;36472;52.170;20.884;2022-08-20T03:34:39;100048.97;;;22.05;83.90
21276;BME280;36472;52.170;20.884;2022-08-20T03:37:08;100050.47;;;22.08;83.51
21276;BME280;36472;52.170;20.884;2022-08-20T03:39:38;100049.19;;;22.03;83.67
21276;BME280;36472;52.170;20.884;2022-08-20T03:42:07;100056.53;;;22.01;83.41
21276;BME280;36472;52.170;20.884;2022-08-20T03:44:36;100053.69;;;22.03;84.21
21276;BME280;36472;52.170;20.884;2022-08-20T03:47:05;100049.19;;;22.03;84.05
21276;BME280;36472;52.170;20.884;2022-08-20T03:49:35;100054.25;;;21.98;84.23
21276;BME280;36472;52.170;20.884;2022-08-20T03:52:05;100060.59;;;21.97;84.75
21276;BME280;36472;52.170;20.884;2022-08-20T03:54:34;100062.19;;;21.92;84.56
21276;BME280;36472;52.170;20.884;2022-08-20T03:57:04;100067.53;;;21.92;84.91
21276;BME280;36472;52.170;20.884;2022-08-20T03:59:41;100073.53;;;21.94;84.83
21276;BME280;36472;52.170;20.884;2022-08-20T04:02:11;100075.28;;;22.01;84.41
21276;BME280;36472;52.170;20.884;2022-08-20T04:04:40;100088.84;;;22.15;83.88
21276;BME280;36472;52.170;20.884;2022-08-20T04:07:13;100096.09;;;22.29;84.42
21276;BME280;36472;52.170;20.884;2022-08-20T04:09:42;100095.13;;;22.22;85.25
21276;BME280;36472;52.170;20.884;2022-08-20T04:12:11;100080.09;;;22.21;84.91
21276;BME280;36472;52.170;20.884;2022-08-20T04:14:41;100075.75;;;22.20;85.02
21276;BME280;36472;52.170;20.884;2022-08-20T04:17:11;100077.16;;;22.16;84.72
21276;BME280;36472;52.170;20.884;2022-08-20T04:19:41;100077.31;;;22.14;84.73
21276;BME280;36472;52.170;20.884;2022-08-20T04:22:12;100079.19;;;22.14;84.57
21276;BME280;36472;52.170;20.884;2022-08-20T04:24:42;100087.50;;;22.19;84.80
21276;BME280;36472;52.170;20.884;2022-08-20T04:27:11;100087.94;;;22.22;84.48
21276;BME280;36472;52.170;20.884;2022-08-20T04:29:41;100084.06;;;22.25;84.18
21276;BME280;36472;52.170;20.884;2022-08-20T04:32:11;100081.75;;;22.22;84.85
21276;BME280;36472;52.170;20.884;2022-08-20T04:34:43;100086.56;;;22.27;85.11
21276;BME280;36472;52.170;20.884;2022-08-20T04:37:19;100071.97;;;22.14;84.59
21276;BME280;36472;52.170;20.884;2022-08-20T04:39:49;100088.59;;;22.25;84.60
21276;BME280;36472;52.170;20.884;2022-08-20T04:42:35;100093.66;;;22.19;84.79
21276;BME280;36472;52.170;20.884;2022-08-20T04:45:07;100088.66;;;22.16;84.69
21276;BME280;36472;52.170;20.884;2022-08-20T04:47:36;100083.78;;;22.20;85.50
21276;BME280;36472;52.170;20.884;2022-08-20T04:50:08;100088.94;;;22.21;85.87
21276;BME280;36472;52.170;20.884;2022-08-20T04:52:39;100084.41;;;22.22;85.68
21276;BME280;36472;52.170;20.884;2022-08-20T04:55:08;100092.84;;;22.19;84.97
21276;BME280;36472;52.170;20.884;2022-08-20T04:57:37;100094.75;;;22.25;84.98
21276;BME280;36472;52.170;20.884;2022-08-20T05:00:10;100089.09;;;22.28;85.07
21276;BME280;36472;52.170;20.884;2022-08-20T05:02:40;100090.94;;;22.28;85.41
21276;BME280;36472;52.170;20.884;2022-08-20T05:05:10;100086.41;;;22.28;85.57
21276;BME280;36472;52.170;20.884;2022-08-20T05:07:44;100093.22;;;22.31;85.36
21276;BME280;36472;52.170;20.884;2022-08-20T05:10:16;100095.13;;;22.22;86.21
21276;BME280;36472;52.170;20.884;2022-08-20T05:12:45;100094.19;;;22.15;86.20
21276;BME280;36472;52.170;20.884;2022-08-20T05:15:24;100102.50;;;22.20;86.74
21276;BME280;36472;52.170;20.884;2022-08-20T05:17:58;100108.69;;;22.20;85.43
21276;BME280;36472;52.170;20.884;2022-08-20T05:20:31;100107.16;;;22.26;85.55
21276;BME280;36472;52.170;20.884;2022-08-20T05:23:02;100111.66;;;22.26;85.13
21276;BME280;36472;52.170;20.884;2022-08-20T05:25:32;100105.47;;;22.25;85.55
21276;BME280;36472;52.170;20.884;2022-08-20T05:28:05;100103.44;;;22.27;86.31
21276;BME280;36472;52.170;20.884;2022-08-20T05:30:38;100101.66;;;22.28;85.80
21276;BME280;36472;52.170;20.884;2022-08-20T05:33:08;100101.63;;;22.42;85.90
21276;BME280;36472;52.170;20.884;2022-08-20T05:35:39;100093.88;;;22.48;84.54
21276;BME280;36472;52.170;20.884;2022-08-20T05:38:12;100095.81;;;22.54;84.39
21276;BME280;36472;52.170;20.884;2022-08-20T05:40:42;100083.34;;;22.61;84.49
21276;BME280;36472;52.170;20.884;2022-08-20T05:43:11;100085.00;;;22.62;84.02
21276;BME280;36472;52.170;20.884;2022-08-20T05:45:42;100082.50;;;22.60;84.12
21276;BME280;36472;52.170;20.884;2022-08-20T05:48:14;100093.22;;;22.60;84.42
21276;BME280;36472;52.170;20.884;2022-08-20T05:50:47;100086.00;;;22.76;83.71
21276;BME280;36472;52.170;20.884;2022-08-20T05:53:18;100091.19;;;22.77;82.96
21276;BME280;36472;52.170;20.884;2022-08-20T05:55:48;100081.00;;;22.73;81.80
21276;BME280;36472;52.170;20.884;2022-08-20T05:58:22;100093.75;;;22.86;82.45
21276;BME280;36472;52.170;20.884;2022-08-20T06:00:53;100094.19;;;22.89;82.51
21276;BME280;36472;52.170;20.884;2022-08-20T06:03:22;100084.84;;;23.00;81.43
21276;BME280;36472;52.170;20.884;2022-08-20T06:06:09;100087.66;;;23.28;80.90
21276;BME280;36472;52.170;20.884;2022-08-20T06:08:45;100091.97;;;23.29;79.15
21276;BME280;36472;52.170;20.884;2022-08-20T06:11:14;100100.97;;;23.43;80.48
21276;BME280;36472;52.170;20.884;2022-08-20T06:13:43;100098.16;;;23.51;79.28
21276;BME280;36472;52.170;20.884;2022-08-20T06:16:11;100097.72;;;23.48;78.71
21276;BME280;36472;52.170;20.884;2022-08-20T06:18:40;100103.78;;;23.57;79.20
21276;BME280;36472;52.170;20.884;2022-08-20T06:21:09;100106.66;;;23.55;78.86
21276;BME280;36472;52.170;20.884;2022-08-20T06:23:37;100099.72;;;23.61;78.16
21276;BME280;36472;52.170;20.884;2022-08-20T06:26:26;100107.75;;;23.61;78.53
21276;BME280;36472;52.170;20.884;2022-08-20T06:28:57;100103.41;;;23.60;77.83
21276;BME280;36472;52.170;20.884;2022-08-20T06:31:27;100109.97;;;23.57;78.35
21276;BME280;36472;52.170;20.884;2022-08-20T06:33:56;100115.28;;;23.94;77.13
21276;BME280;36472;52.170;20.884;2022-08-20T06:36:24;100118.94;;;24.14;76.79
21276;BME280;36472;52.170;20.884;2022-08-20T06:38:54;100113.66;;;24.27;76.12
21276;BME280;36472;52.170;20.884;2022-08-20T06:41:26;100117.06;;;24.43;75.08
21276;BME280;36472;52.170;20.884;2022-08-20T06:44:03;100116.69;;;24.46;75.22
21276;BME280;36472;52.170;20.884;2022-08-20T06:46:34;100118.03;;;24.63;75.55
21276;BME280;36472;52.170;20.884;2022-08-20T06:49:05;100120.16;;;24.81;75.91
21276;BME280;36472;52.170;20.884;2022-08-20T06:51:35;100117.28;;;24.83;74.84
21276;BME280;36472;52.170;20.884;2022-08-20T06:54:06;100117.22;;;24.70;73.93
21276;BME280;36472;52.170;20.884;2022-08-20T06:56:36;100111.41;;;24.66;74.42
21276;BME280;36472;52.170;20.884;2022-08-20T06:59:04;100123.00;;;24.67;75.18
21276;BME280;36472;52.170;20.884;2022-08-20T07:01:33;100132.88;;;24.59;76.21
21276;BME280;36472;52.170;20.884;2022-08-20T07:04:03;100133.81;;;24.45;75.48
21276;BME280;36472;52.170;20.884;2022-08-20T07:06:33;100136.66;;;24.37;75.80
21276;BME280;36472;52.170;20.884;2022-08-20T07:09:02;100134.91;;;24.22;75.98
21276;BME280;36472;52.170;20.884;2022-08-20T07:11:31;100130.88;;;24.40;76.19
21276;BME280;36472;52.170;20.884;2022-08-20T07:14:02;100130.94;;;24.46;76.44
21276;BME280;36472;52.170;20.884;2022-08-20T07:16:32;100131.13;;;24.45;75.62
21276;BME280;36472;52.170;20.884;2022-08-20T07:19:01;100127.19;;;24.41;75.70
21276;BME280;36472;52.170;20.884;2022-08-20T07:21:30;100133.13;;;24.36;75.05
21276;BME280;36472;52.170;20.884;2022-08-20T07:23:59;100127.50;;;24.59;75.95
21276;BME280;36472;52.170;20.884;2022-08-20T07:26:28;100122.44;;;24.78;74.06
21276;BME280;36472;52.170;20.884;2022-08-20T07:28:56;100118.56;;;24.94;73.60
21276;BME280;36472;52.170;20.884;2022-08-20T07:31:27;100120.06;;;25.10;72.10
21276;BME280;36472;52.170;20.884;2022-08-20T07:34:14;100118.84;;;25.19;71.64
21276;BME280;36472;52.170;20.884;2022-08-20T07:36:46;100130.16;;;25.96;69.60
21276;BME280;36472;52.170;20.884;2022-08-20T07:39:16;100132.44;;;26.26;67.47
21276;BME280;36472;52.170;20.884;2022-08-20T07:41:46;100141.97;;;26.94;64.95
21276;BME280;36472;52.170;20.884;2022-08-20T07:44:29;100131.59;;;27.99;60.94
21276;BME280;36472;52.170;20.884;2022-08-20T07:46:59;100132.53;;;28.74;58.94
21276;BME280;36472;52.170;20.884;2022-08-20T07:49:31;100134.50;;;29.88;55.87
21276;BME280;36472;52.170;20.884;2022-08-20T07:51:59;100130.34;;;30.33;51.97
21276;BME280;36472;52.170;20.884;2022-08-20T07:54:28;100136.63;;;29.98;52.06
21276;BME280;36472;52.170;20.884;2022-08-20T07:56:59;100144.28;;;29.17;53.75
21276;BME280;36472;52.170;20.884;2022-08-20T07:59:30;100134.22;;;28.50;57.00
21276;BME280;36472;52.170;20.884;2022-08-20T08:02:00;100129.59;;;28.76;55.87
21276;BME280;36472;52.170;20.884;2022-08-20T08:04:29;100113.00;;;29.63;53.85
21276;BME280;36472;52.170;20.884;2022-08-20T08:06:57;100114.47;;;30.13;52.79
21276;BME280;36472;52.170;20.884;2022-08-20T08:09:27;100114.69;;;30.47;51.10
21276;BME280;36472;52.170;20.884;2022-08-20T08:11:57;100113.41;;;31.19;49.07
21276;BME280;36472;52.170;20.884;2022-08-20T08:14:32;100112.31;;;31.48;47.09
21276;BME280;36472;52.170;20.884;2022-08-20T08:17:04;100112.16;;;31.09;49.03
21276;BME280;36472;52.170;20.884;2022-08-20T08:19:39;100099.97;;;31.41;47.50
21276;BME280;36472;52.170;20.884;2022-08-20T08:22:13;100110.16;;;30.64;49.26
21276;BME280;36472;52.170;20.884;2022-08-20T08:24:44;100110.13;;;29.46;53.03
21276;BME280;36472;52.170;20.884;2022-08-20T08:27:23;100101.94;;;29.22;54.09
21276;BME280;36472;52.170;20.884;2022-08-20T08:29:52;100098.75;;;28.95;54.39
21276;BME280;36472;52.170;20.884;2022-08-20T08:32:22;100093.28;;;29.32;55.07
21276;BME280;36472;52.170;20.884;2022-08-20T08:34:51;100093.97;;;30.29;51.44
21276;BME280;36472;52.170;20.884;2022-08-20T08:37:20;100093.97;;;30.05;52.26
21276;BME280;36472;52.170;20.884;2022-08-20T08:39:49;100100.41;;;29.69;52.84
21276;BME280;36472;52.170;20.884;2022-08-20T08:42:25;100097.50;;;30.29;52.04
21276;BME280;36472;52.170;20.884;2022-08-20T08:44:56;100105.06;;;30.03;52.33
21276;BME280;36472;52.170;20.884;2022-08-20T08:47:30;100107.97;;;30.49;51.72
21276;BME280;36472;52.170;20.884;2022-08-20T08:50:06;100113.97;;;31.04;48.96
21276;BME280;36472;52.170;20.884;2022-08-20T08:52:38;100112.94;;;31.67;47.19
21276;BME280;36472;52.170;20.884;2022-08-20T08:55:14;100125.41;;;32.02;47.93
21276;BME280;36472;52.170;20.884;2022-08-20T08:57:45;100116.06;;;32.10;46.62
21276;BME280;36472;52.170;20.884;2022-08-20T09:00:18;100116.81;;;32.89;45.47
21276;BME280;36472;52.170;20.884;2022-08-20T09:03:00;100121.81;;;32.14;47.08
21276;BME280;36472;52.170;20.884;2022-08-20T09:05:38;100124.75;;;32.29;46.12
21276;BME280;36472;52.170;20.884;2022-08-20T09:08:13;100120.69;;;32.32;45.42
21276;BME280;36472;52.170;20.884;2022-08-20T09:10:44;100118.72;;;33.15;45.23
21276;BME280;36472;52.170;20.884;2022-08-20T09:13:13;100119.06;;;32.97;43.90
21276;BME280;36472;52.170;20.884;2022-08-20T09:15:42;100123.25;;;32.83;44.24
21276;BME280;36472;52.170;20.884;2022-08-20T09:18:12;100123.75;;;33.29;43.15
21276;BME280;36472;52.170;20.884;2022-08-20T09:20:40;100120.59;;;32.88;43.66
21276;BME280;36472;52.170;20.884;2022-08-20T09:23:09;100117.31;;;33.13;43.07
21276;BME280;36472;52.170;20.884;2022-08-20T09:25:38;100118.81;;;33.85;43.50
21276;BME280;36472;52.170;20.884;2022-08-20T09:28:07;100110.03;;;32.91;43.86
21276;BME280;36472;52.170;20.884;2022-08-20T09:30:35;100113.03;;;32.95;43.90
21276;BME280;36472;52.170;20.884;2022-08-20T09:33:04;100117.75;;;33.27;43.31
21276;BME280;36472;52.170;20.884;2022-08-20T09:35:34;100119.69;;;33.04;43.60
21276;BME280;36472;52.170;20.884;2022-08-20T09:38:04;100115.25;;;32.98;43.68
21276;BME280;36472;52.170;20.884;2022-08-20T09:40:33;100123.38;;;32.71;44.02
21276;BME280;36472;52.170;20.884;2022-08-20T09:43:04;100124.84;;;33.01;44.20
21276;BME280;36472;52.170;20.884;2022-08-20T09:45:33;100116.91;;;32.99;43.67
21276;BME280;36472;52.170;20.884;2022-08-20T09:48:03;100122.63;;;32.75;44.38
21276;BME280;36472;52.170;20.884;2022-08-20T09:50:43;100111.53;;;32.38;44.21
21276;BME280;36472;52.170;20.884;2022-08-20T09:53:15;100110.03;;;32.91;43.22
21276;BME280;36472;52.170;20.884;2022-08-20T09:55:48;100111.13;;;32.90;43.79
21276;BME280;36472;52.170;20.884;2022-08-20T09:58:23;100104.22;;;32.83;44.24
21276;BME280;36472;52.170;20.884;2022-08-20T10:00:54;100109.00;;;33.20;43.23
21276;BME280;36472;52.170;20.884;2022-08-20T10:03:23;100102.53;;;32.76;43.89
21276;BME280;36472;52.170;20.884;2022-08-20T10:05:53;100085.59;;;33.24;43.41
21276;BME280;36472;52.170;20.884;2022-08-20T10:08:21;100082.53;;;33.47;43.39
21276;BME280;36472;52.170;20.884;2022-08-20T10:10:50;100090.16;;;33.78;43.00
21276;BME280;36472;52.170;20.884;2022-08-20T10:13:19;100083.94;;;33.82;42.60
21276;BME280;36472;52.170;20.884;2022-08-20T10:15:48;100084.19;;;34.23;41.71
21276;BME280;36472;52.170;20.884;2022-08-20T10:18:16;100081.53;;;34.34;41.03
21276;BME280;36472;52.170;20.884;2022-08-20T10:20:45;100077.72;;;33.92;41.94
21276;BME280;36472;52.170;20.884;2022-08-20T10:23:15;100073.94;;;33.98;42.59
21276;BME280;36472;52.170;20.884;2022-08-20T10:25:44;100064.72;;;34.09;42.22
21276;BME280;36472;52.170;20.884;2022-08-20T10:28:12;100071.81;;;34.10;41.32
21276;BME280;36472;52.170;20.884;2022-08-20T10:30:41;100069.19;;;33.78;42.51
21276;BME280;36472;52.170;20.884;2022-08-20T10:33:11;100072.88;;;34.62;41.82
21276;BME280;36472;52.170;20.884;2022-08-20T10:35:40;100073.56;;;35.00;40.88
21276;BME280;36472;52.170;20.884;2022-08-20T10:38:08;100072.84;;;34.52;40.57
21276;BME280;36472;52.170;20.884;2022-08-20T10:40:39;100068.16;;;34.37;41.16
21276;BME280;36472;52.170;20.884;2022-08-20T10:43:17;100067.44;;;34.67;41.83
21276;BME280;36472;52.170;20.884;2022-08-20T10:45:45;100079.88;;;34.33;41.64
21276;BME280;36472;52.170;20.884;2022-08-20T10:48:14;100077.72;;;33.27;42.69
21276;BME280;36472;52.170;20.884;2022-08-20T10:50:48;100083.81;;;33.67;43.86
21276;BME280;36472;52.170;20.884;2022-08-20T10:53:17;100081.41;;;34.18;42.54
21276;BME280;36472;52.170;20.884;2022-08-20T10:55:47;100085.88;;;33.00;43.63
21276;BME280;36472;52.170;20.884;2022-08-20T10:58:16;100089.72;;;33.59;43.27
21276;BME280;36472;52.170;20.884;2022-08-20T11:00:50;100081.91;;;33.67;43.17
21276;BME280;36472;52.170;20.884;2022-08-20T11:03:19;100075.25;;;33.58;41.79
21276;BME280;36472;52.170;20.884;2022-08-20T11:05:48;100066.59;;;33.29;42.37
21276;BME280;36472;52.170;20.884;2022-08-20T11:08:17;100069.81;;;33.58;41.48
21276;BME280;36472;52.170;20.884;2022-08-20T11:11:03;100064.91;;;33.55;40.56
21276;BME280;36472;52.170;20.884;2022-08-20T11:13:32;100065.06;;;33.70;41.93
21276;BME280;36472;52.170;20.884;2022-08-20T11:16:01;100057.94;;;33.37;41.44
21276;BME280;36472;52.170;20.884;2022-08-20T11:18:30;100059.97;;;33.52;41.38
21276;BME280;36472;52.170;20.884;2022-08-20T11:20:59;100053.41;;;33.48;42.13
21276;BME280;36472;52.170;20.884;2022-08-20T11:23:28;100053.34;;;33.75;41.86
21276;BME280;36472;52.170;20.884;2022-08-20T11:25:59;100055.91;;;33.54;40.51
21276;BME280;36472;52.170;20.884;2022-08-20T11:28:29;100061.44;;;33.05;40.11
21276;BME280;36472;52.170;20.884;2022-08-20T11:31:00;100054.53;;;32.92;41.93
21276;BME280;36472;52.170;20.884;2022-08-20T11:33:29;100060.81;;;32.71;40.84
21276;BME280;36472;52.170;20.884;2022-08-20T11:35:57;100053.25;;;32.51;41.22
21276;BME280;36472;52.170;20.884;2022-08-20T11:38:26;100052.91;;;32.47;41.39
21276;BME280;36472;52.170;20.884;2022-08-20T11:40:55;100045.97;;;32.12;43.20
21276;BME280;36472;52.170;20.884;2022-08-20T11:43:24;100044.94;;;31.79;43.43
21276;BME280;36472;52.170;20.884;2022-08-20T11:45:54;100045.25;;;31.83;42.79
21276;BME280;36472;52.170;20.884;2022-08-20T11:48:23;100043.75;;;31.92;43.36
21276;BME280;36472;52.170;20.884;2022-08-20T11:50:52;100045.66;;;31.92;43.28
21276;BME280;36472;52.170;20.884;2022-08-20T11:53:21;100052.84;;;31.81;43.99
21276;BME280;36472;52.170;20.884;2022-08-20T11:55:50;100048.16;;;31.59;44.25
21276;BME280;36472;52.170;20.884;2022-08-20T11:58:19;100052.78;;;31.59;45.14
21276;BME280;36472;52.170;20.884;2022-08-20T12:00:47;100042.69;;;31.42;45.39
21276;BME280;36472;52.170;20.884;2022-08-20T12:03:18;100045.25;;;31.32;43.94
21276;BME280;36472;52.170;20.884;2022-08-20T12:05:46;100048.34;;;31.07;44.17
21276;BME280;36472;52.170;20.884;2022-08-20T12:08:16;100039.91;;;30.91;44.89
21276;BME280;36472;52.170;20.884;2022-08-20T12:10:56;100041.78;;;31.03;44.82
21276;BME280;36472;52.170;20.884;2022-08-20T12:13:26;100041.75;;;30.74;46.20
21276;BME280;36472;52.170;20.884;2022-08-20T12:16:14;100036.13;;;30.64;45.70
21276;BME280;36472;52.170;20.884;2022-08-20T12:18:44;100036.03;;;30.58;46.38
21276;BME280;36472;52.170;20.884;2022-08-20T12:21:13;100042.00;;;30.72;46.00
21276;BME280;36472;52.170;20.884;2022-08-20T12:23:43;100029.72;;;30.82;45.62
21276;BME280;36472;52.170;20.884;2022-08-20T12:26:11;100026.31;;;31.03;45.66
21276;BME280;36472;52.170;20.884;2022-08-20T12:28:40;100028.47;;;31.18;45.83
21276;BME280;36472;52.170;20.884;2022-08-20T12:31:09;100029.78;;;30.99;44.19
21276;BME280;36472;52.170;20.884;2022-08-20T12:33:37;100023.59;;;31.03;44.36
21276;BME280;36472;52.170;20.884;2022-08-20T12:36:08;100025.28;;;30.92;44.30
21276;BME280;36472;52.170;20.884;2022-08-20T12:38:37;100029.69;;;30.93;44.06
21276;BME280;36472;52.170;20.884;2022-08-20T12:41:06;100027.34;;;30.85;42.76
21276;BME280;36472;52.170;20.884;2022-08-20T12:43:35;100027.81;;;30.82;43.59
21276;BME280;36472;52.170;20.884;2022-08-20T12:46:04;100023.50;;;30.98;44.30
21276;BME280;36472;52.170;20.884;2022-08-20T12:48:33;100026.09;;;30.93;44.89
21276;BME280;36472;52.170;20.884;2022-08-20T12:51:01;100021.31;;;30.83;44.89
21276;BME280;36472;52.170;20.884;2022-08-20T12:53:31;100009.78;;;31.05;44.33
21276;BME280;36472;52.170;20.884;2022-08-20T12:56:03;100014.88;;;31.01;44.20
21276;BME280;36472;52.170;20.884;2022-08-20T12:58:32;100000.34;;;31.07;43.92
21276;BME280;36472;52.170;20.884;2022-08-20T13:01:00;100006.13;;;30.82;45.64